sensor_id;sensor_type;location;lat;lon;timestamp;P1;durP1;ratioP1;P2;durP2;ratioP2
36355;SDS011;22384;54.302;18.596;2024-03-06T00:02:08;42.75;;;19.30;;
36355;SDS011;22384;54.302;18.596;2024-03-06T00:04:35;38.13;;;17.52;;
36355;SDS011;22384;54.302;18.596;2024-03-06T00:07:01;35.80;;;16.92;;
36355;SDS011;22384;54.302;18.596;2024-03-06T00:09:27;35.40;;;16.95;;
36355;SDS011;22384;54.302;18.596;2024-03-06T00:11:54;29.42;;;16.13;;
36355;SDS011;22384;54.302;18.596;2024-03-06T00:14:20;32.88;;;16.48;;
36355;SDS011;22384;54.302;18.596;2024-03-06T00:16:47;30.75;;;16.38;;
36355;SDS011;22384;54.302;18.596;2024-03-06T00:19:15;30.83;;;15.38;;
36355;SDS011;22384;54.302;18.596;2024-03-06T00:21:41;31.85;;;15.43;;
36355;SDS011;22384;54.302;18.596;2024-03-06T00:24:07;27.50;;;15.50;;
36355;SDS011;22384;54.302;18.596;2024-03-06T00:26:33;27.30;;;15.30;;
36355;SDS011;22384;54.302;18.596;2024-03-06T00:28:59;29.88;;;15.18;;
36355;SDS011;22384;54.302;18.596;2024-03-06T00:31:25;27.55;;;14.82;;
36355;SDS011;22384;54.302;18.596;2024-03-06T00:33:51;28.75;;;15.02;;
36355;SDS011;22384;54.302;18.596;2024-03-06T00:36:17;31.25;;;14.55;;
36355;SDS011;22384;54.302;18.596;2024-03-06T00:38:43;29.08;;;14.43;;
36355;SDS011;22384;54.302;18.596;2024-03-06T00:41:09;29.65;;;15.85;;
36355;SDS011;22384;54.302;18.596;2024-03-06T00:43:35;31.02;;;15.73;;
36355;SDS011;22384;54.302;18.596;2024-03-06T00:46:02;28.80;;;14.55;;
36355;SDS011;22384;54.302;18.596;2024-03-06T00:48:28;32.10;;;15.27;;
36355;SDS011;22384;54.302;18.596;2024-03-06T00:50:54;27.63;;;13.13;;
36355;SDS011;22384;54.302;18.596;2024-03-06T00:53:20;20.77;;;13.52;;
36355;SDS011;22384;54.302;18.596;2024-03-06T00:55:46;30.35;;;15.75;;
36355;SDS011;22384;54.302;18.596;2024-03-06T00:58:12;30.33;;;14.32;;
36355;SDS011;22384;54.302;18.596;2024-03-06T01:00:38;28.88;;;13.98;;
36355;SDS011;22384;54.302;18.596;2024-03-06T01:03:04;23.40;;;13.27;;
36355;SDS011;22384;54.302;18.596;2024-03-06T01:05:31;24.98;;;14.02;;
36355;SDS011;22384;54.302;18.596;2024-03-06T01:07:57;29.00;;;14.77;;
36355;SDS011;22384;54.302;18.596;2024-03-06T01:10:24;24.30;;;13.90;;
36355;SDS011;22384;54.302;18.596;2024-03-06T01:12:50;24.90;;;13.98;;
36355;SDS011;22384;54.302;18.596;2024-03-06T01:15:16;25.92;;;13.60;;
36355;SDS011;22384;54.302;18.596;2024-03-06T01:17:42;26.73;;;13.02;;
36355;SDS011;22384;54.302;18.596;2024-03-06T01:20:09;23.63;;;12.90;;
36355;SDS011;22384;54.302;18.596;2024-03-06T01:22:35;29.05;;;14.05;;
36355;SDS011;22384;54.302;18.596;2024-03-06T01:25:01;21.23;;;12.55;;
36355;SDS011;22384;54.302;18.596;2024-03-06T01:27:27;28.48;;;13.55;;
36355;SDS011;22384;54.302;18.596;2024-03-06T01:29:53;28.35;;;12.90;;
36355;SDS011;22384;54.302;18.596;2024-03-06T01:32:19;24.23;;;11.98;;
36355;SDS011;22384;54.302;18.596;2024-03-06T01:34:45;35.35;;;13.90;;
36355;SDS011;22384;54.302;18.596;2024-03-06T01:37:11;24.75;;;11.90;;
36355;SDS011;22384;54.302;18.596;2024-03-06T01:39:37;22.20;;;12.80;;
36355;SDS011;22384;54.302;18.596;2024-03-06T01:42:03;21.63;;;11.40;;
36355;SDS011;22384;54.302;18.596;2024-03-06T01:44:29;20.67;;;11.52;;
36355;SDS011;22384;54.302;18.596;2024-03-06T01:46:56;30.77;;;12.00;;
36355;SDS011;22384;54.302;18.596;2024-03-06T01:49:22;21.90;;;11.80;;
36355;SDS011;22384;54.302;18.596;2024-03-06T01:51:50;23.90;;;11.48;;
36355;SDS011;22384;54.302;18.596;2024-03-06T01:54:17;24.15;;;11.50;;
36355;SDS011;22384;54.302;18.596;2024-03-06T01:56:44;19.08;;;10.63;;
36355;SDS011;22384;54.302;18.596;2024-03-06T01:59:14;20.92;;;12.20;;
36355;SDS011;22384;54.302;18.596;2024-03-06T02:01:41;21.63;;;12.23;;
36355;SDS011;22384;54.302;18.596;2024-03-06T02:04:08;21.05;;;11.88;;
36355;SDS011;22384;54.302;18.596;2024-03-06T02:06:40;21.75;;;12.80;;
36355;SDS011;22384;54.302;18.596;2024-03-06T02:09:07;25.23;;;11.30;;
36355;SDS011;22384;54.302;18.596;2024-03-06T02:11:34;23.58;;;11.65;;
36355;SDS011;22384;54.302;18.596;2024-03-06T02:14:00;33.03;;;11.02;;
36355;SDS011;22384;54.302;18.596;2024-03-06T02:16:26;21.60;;;11.90;;
36355;SDS011;22384;54.302;18.596;2024-03-06T02:18:53;21.80;;;9.82;;
36355;SDS011;22384;54.302;18.596;2024-03-06T02:21:22;22.70;;;10.77;;
36355;SDS011;22384;54.302;18.596;2024-03-06T02:23:49;20.15;;;10.13;;
36355;SDS011;22384;54.302;18.596;2024-03-06T02:26:19;24.30;;;10.60;;
36355;SDS011;22384;54.302;18.596;2024-03-06T02:28:51;22.80;;;11.45;;
36355;SDS011;22384;54.302;18.596;2024-03-06T02:31:18;21.33;;;12.05;;
36355;SDS011;22384;54.302;18.596;2024-03-06T02:33:45;20.10;;;10.25;;
36355;SDS011;22384;54.302;18.596;2024-03-06T02:36:12;20.67;;;10.00;;
36355;SDS011;22384;54.302;18.596;2024-03-06T02:38:38;23.38;;;11.55;;
36355;SDS011;22384;54.302;18.596;2024-03-06T02:41:04;20.92;;;10.80;;
36355;SDS011;22384;54.302;18.596;2024-03-06T02:43:31;17.17;;;9.85;;
36355;SDS011;22384;54.302;18.596;2024-03-06T02:45:57;19.10;;;10.32;;
36355;SDS011;22384;54.302;18.596;2024-03-06T02:48:24;22.13;;;10.73;;
36355;SDS011;22384;54.302;18.596;2024-03-06T02:50:50;18.63;;;9.38;;
36355;SDS011;22384;54.302;18.596;2024-03-06T02:53:16;16.85;;;9.50;;
36355;SDS011;22384;54.302;18.596;2024-03-06T02:55:42;20.02;;;10.07;;
36355;SDS011;22384;54.302;18.596;2024-03-06T02:58:08;15.75;;;9.85;;
36355;SDS011;22384;54.302;18.596;2024-03-06T03:00:34;19.33;;;10.05;;
36355;SDS011;22384;54.302;18.596;2024-03-06T03:03:00;22.67;;;9.98;;
36355;SDS011;22384;54.302;18.596;2024-03-06T03:05:26;19.75;;;10.10;;
36355;SDS011;22384;54.302;18.596;2024-03-06T03:07:52;18.45;;;9.95;;
36355;SDS011;22384;54.302;18.596;2024-03-06T03:10:18;18.08;;;10.23;;
36355;SDS011;22384;54.302;18.596;2024-03-06T03:12:45;18.77;;;9.75;;
36355;SDS011;22384;54.302;18.596;2024-03-06T03:15:11;13.85;;;9.43;;
36355;SDS011;22384;54.302;18.596;2024-03-06T03:17:37;17.67;;;9.52;;
36355;SDS011;22384;54.302;18.596;2024-03-06T03:20:03;21.00;;;11.30;;
36355;SDS011;22384;54.302;18.596;2024-03-06T03:22:35;20.83;;;9.95;;
36355;SDS011;22384;54.302;18.596;2024-03-06T03:25:02;20.98;;;9.98;;
36355;SDS011;22384;54.302;18.596;2024-03-06T03:27:28;17.70;;;9.43;;
36355;SDS011;22384;54.302;18.596;2024-03-06T03:29:54;19.50;;;9.52;;
36355;SDS011;22384;54.302;18.596;2024-03-06T03:32:20;14.65;;;9.25;;
36355;SDS011;22384;54.302;18.596;2024-03-06T03:34:46;17.33;;;9.93;;
36355;SDS011;22384;54.302;18.596;2024-03-06T03:37:13;17.25;;;10.00;;
36355;SDS011;22384;54.302;18.596;2024-03-06T03:39:39;15.98;;;9.40;;
36355;SDS011;22384;54.302;18.596;2024-03-06T03:42:07;17.67;;;9.50;;
36355;SDS011;22384;54.302;18.596;2024-03-06T03:44:33;18.60;;;9.07;;
36355;SDS011;22384;54.302;18.596;2024-03-06T03:46:59;16.60;;;10.00;;
36355;SDS011;22384;54.302;18.596;2024-03-06T03:49:25;21.83;;;10.18;;
36355;SDS011;22384;54.302;18.596;2024-03-06T03:51:51;16.88;;;10.18;;
36355;SDS011;22384;54.302;18.596;2024-03-06T03:54:17;19.65;;;10.30;;
36355;SDS011;22384;54.302;18.596;2024-03-06T03:56:43;17.75;;;10.07;;
36355;SDS011;22384;54.302;18.596;2024-03-06T03:59:09;22.00;;;10.85;;
36355;SDS011;22384;54.302;18.596;2024-03-06T04:01:35;24.48;;;10.80;;
36355;SDS011;22384;54.302;18.596;2024-03-06T04:04:02;21.67;;;11.38;;
36355;SDS011;22384;54.302;18.596;2024-03-06T04:06:28;22.58;;;10.32;;
36355;SDS011;22384;54.302;18.596;2024-03-06T04:08:54;21.00;;;11.30;;
36355;SDS011;22384;54.302;18.596;2024-03-06T04:11:20;21.80;;;10.32;;
36355;SDS011;22384;54.302;18.596;2024-03-06T04:13:46;18.60;;;9.98;;
36355;SDS011;22384;54.302;18.596;2024-03-06T04:16:15;19.23;;;9.23;;
36355;SDS011;22384;54.302;18.596;2024-03-06T04:18:42;20.50;;;10.63;;
36355;SDS011;22384;54.302;18.596;2024-03-06T04:21:08;16.52;;;9.80;;
36355;SDS011;22384;54.302;18.596;2024-03-06T04:23:35;22.17;;;10.18;;
36355;SDS011;22384;54.302;18.596;2024-03-06T04:26:01;20.77;;;9.35;;
36355;SDS011;22384;54.302;18.596;2024-03-06T06:00:08;16.40;;;9.57;;
36355;SDS011;22384;54.302;18.596;2024-03-06T06:02:36;17.42;;;9.48;;
36355;SDS011;22384;54.302;18.596;2024-03-06T06:05:02;21.40;;;9.55;;
36355;SDS011;22384;54.302;18.596;2024-03-06T06:07:29;20.90;;;9.70;;
36355;SDS011;22384;54.302;18.596;2024-03-06T06:09:55;23.08;;;9.52;;
36355;SDS011;22384;54.302;18.596;2024-03-06T06:12:21;21.25;;;9.27;;
36355;SDS011;22384;54.302;18.596;2024-03-06T06:14:47;27.50;;;9.40;;
36355;SDS011;22384;54.302;18.596;2024-03-06T06:17:13;18.58;;;9.30;;
36355;SDS011;22384;54.302;18.596;2024-03-06T06:19:41;18.77;;;9.52;;
36355;SDS011;22384;54.302;18.596;2024-03-06T06:22:08;21.33;;;8.65;;
36355;SDS011;22384;54.302;18.596;2024-03-06T06:24:36;20.90;;;9.50;;
36355;SDS011;22384;54.302;18.596;2024-03-06T06:27:03;24.65;;;9.93;;
36355;SDS011;22384;54.302;18.596;2024-03-06T06:29:29;18.98;;;9.15;;
36355;SDS011;22384;54.302;18.596;2024-03-06T06:31:56;19.27;;;10.00;;
36355;SDS011;22384;54.302;18.596;2024-03-06T06:34:22;16.98;;;8.68;;
36355;SDS011;22384;54.302;18.596;2024-03-06T06:36:52;11.57;;;6.88;;
36355;SDS011;22384;54.302;18.596;2024-03-06T06:39:18;26.17;;;9.00;;
36355;SDS011;22384;54.302;18.596;2024-03-06T06:41:44;23.27;;;10.07;;
36355;SDS011;22384;54.302;18.596;2024-03-06T06:44:10;23.92;;;9.65;;
36355;SDS011;22384;54.302;18.596;2024-03-06T06:46:36;22.80;;;9.88;;
36355;SDS011;22384;54.302;18.596;2024-03-06T06:49:03;15.35;;;8.88;;
36355;SDS011;22384;54.302;18.596;2024-03-06T06:51:29;22.83;;;9.32;;
36355;SDS011;22384;54.302;18.596;2024-03-06T06:53:55;21.13;;;10.07;;
36355;SDS011;22384;54.302;18.596;2024-03-06T06:56:21;22.30;;;10.40;;
36355;SDS011;22384;54.302;18.596;2024-03-06T06:58:49;23.30;;;9.20;;
36355;SDS011;22384;54.302;18.596;2024-03-06T07:01:15;15.82;;;8.52;;
36355;SDS011;22384;54.302;18.596;2024-03-06T07:03:42;21.13;;;8.38;;
36355;SDS011;22384;54.302;18.596;2024-03-06T07:06:08;18.48;;;9.05;;
36355;SDS011;22384;54.302;18.596;2024-03-06T07:08:36;21.40;;;8.60;;
36355;SDS011;22384;54.302;18.596;2024-03-06T07:11:02;17.38;;;8.73;;
36355;SDS011;22384;54.302;18.596;2024-03-06T07:13:34;16.02;;;8.75;;
36355;SDS011;22384;54.302;18.596;2024-03-06T07:16:02;15.70;;;8.43;;
36355;SDS011;22384;54.302;18.596;2024-03-06T07:18:29;16.42;;;7.63;;
36355;SDS011;22384;54.302;18.596;2024-03-06T07:20:55;16.52;;;7.90;;
36355;SDS011;22384;54.302;18.596;2024-03-06T07:23:21;17.90;;;8.40;;
36355;SDS011;22384;54.302;18.596;2024-03-06T07:25:47;16.58;;;8.68;;
36355;SDS011;22384;54.302;18.596;2024-03-06T07:28:13;19.88;;;8.57;;
36355;SDS011;22384;54.302;18.596;2024-03-06T07:30:39;15.02;;;7.88;;
36355;SDS011;22384;54.302;18.596;2024-03-06T07:33:05;17.17;;;8.93;;
36355;SDS011;22384;54.302;18.596;2024-03-06T07:35:32;17.30;;;8.32;;
36355;SDS011;22384;54.302;18.596;2024-03-06T07:38:01;19.63;;;8.88;;
36355;SDS011;22384;54.302;18.596;2024-03-06T07:40:29;21.65;;;8.93;;
36355;SDS011;22384;54.302;18.596;2024-03-06T07:42:55;16.42;;;8.23;;
36355;SDS011;22384;54.302;18.596;2024-03-06T07:45:22;17.67;;;8.30;;
36355;SDS011;22384;54.302;18.596;2024-03-06T07:47:48;18.05;;;9.25;;
36355;SDS011;22384;54.302;18.596;2024-03-06T07:50:14;19.77;;;9.70;;
36355;SDS011;22384;54.302;18.596;2024-03-06T07:52:44;27.08;;;9.95;;
36355;SDS011;22384;54.302;18.596;2024-03-06T07:55:10;19.20;;;9.00;;
36355;SDS011;22384;54.302;18.596;2024-03-06T07:57:36;17.42;;;8.95;;
36355;SDS011;22384;54.302;18.596;2024-03-06T08:00:03;19.90;;;8.63;;
36355;SDS011;22384;54.302;18.596;2024-03-06T08:02:39;18.80;;;8.68;;
36355;SDS011;22384;54.302;18.596;2024-03-06T08:05:08;21.48;;;9.25;;
36355;SDS011;22384;54.302;18.596;2024-03-06T08:07:36;16.80;;;8.82;;
36355;SDS011;22384;54.302;18.596;2024-03-06T08:10:03;14.95;;;8.43;;
36355;SDS011;22384;54.302;18.596;2024-03-06T08:12:30;19.10;;;8.23;;
36355;SDS011;22384;54.302;18.596;2024-03-06T08:14:56;17.45;;;8.55;;
36355;SDS011;22384;54.302;18.596;2024-03-06T08:17:22;17.50;;;8.70;;
36355;SDS011;22384;54.302;18.596;2024-03-06T08:19:49;16.00;;;8.35;;
36355;SDS011;22384;54.302;18.596;2024-03-06T08:22:15;16.80;;;8.45;;
36355;SDS011;22384;54.302;18.596;2024-03-06T08:24:41;15.82;;;8.15;;
36355;SDS011;22384;54.302;18.596;2024-03-06T08:27:07;16.15;;;7.97;;
36355;SDS011;22384;54.302;18.596;2024-03-06T08:29:33;19.40;;;8.63;;
36355;SDS011;22384;54.302;18.596;2024-03-06T08:31:59;18.88;;;8.63;;
36355;SDS011;22384;54.302;18.596;2024-03-06T08:34:26;16.27;;;8.38;;
36355;SDS011;22384;54.302;18.596;2024-03-06T08:36:52;14.10;;;7.57;;
36355;SDS011;22384;54.302;18.596;2024-03-06T08:39:20;15.18;;;8.20;;
36355;SDS011;22384;54.302;18.596;2024-03-06T08:41:46;21.15;;;7.45;;
36355;SDS011;22384;54.302;18.596;2024-03-06T08:44:12;14.13;;;8.15;;
36355;SDS011;22384;54.302;18.596;2024-03-06T08:46:39;19.83;;;8.10;;
36355;SDS011;22384;54.302;18.596;2024-03-06T08:49:05;15.60;;;7.60;;
36355;SDS011;22384;54.302;18.596;2024-03-06T08:51:31;22.08;;;7.90;;
36355;SDS011;22384;54.302;18.596;2024-03-06T08:53:57;15.65;;;8.10;;
36355;SDS011;22384;54.302;18.596;2024-03-06T08:56:23;18.92;;;7.55;;
36355;SDS011;22384;54.302;18.596;2024-03-06T08:58:49;21.88;;;7.28;;
36355;SDS011;22384;54.302;18.596;2024-03-06T09:01:15;15.20;;;6.88;;
36355;SDS011;22384;54.302;18.596;2024-03-06T09:03:41;20.73;;;8.05;;
36355;SDS011;22384;54.302;18.596;2024-03-06T09:06:07;16.83;;;8.10;;
36355;SDS011;22384;54.302;18.596;2024-03-06T09:08:35;14.27;;;7.22;;
36355;SDS011;22384;54.302;18.596;2024-03-06T09:11:01;14.20;;;7.53;;
36355;SDS011;22384;54.302;18.596;2024-03-06T09:13:28;17.75;;;7.72;;
36355;SDS011;22384;54.302;18.596;2024-03-06T09:15:54;19.15;;;8.13;;
36355;SDS011;22384;54.302;18.596;2024-03-06T09:18:20;19.90;;;7.50;;
36355;SDS011;22384;54.302;18.596;2024-03-06T09:20:46;15.95;;;8.90;;
36355;SDS011;22384;54.302;18.596;2024-03-06T09:23:12;19.63;;;8.13;;
36355;SDS011;22384;54.302;18.596;2024-03-06T09:25:40;15.77;;;8.95;;
36355;SDS011;22384;54.302;18.596;2024-03-06T09:28:06;18.60;;;7.50;;
36355;SDS011;22384;54.302;18.596;2024-03-06T09:30:33;13.57;;;7.70;;
36355;SDS011;22384;54.302;18.596;2024-03-06T09:32:59;18.20;;;9.77;;
36355;SDS011;22384;54.302;18.596;2024-03-06T09:35:25;15.85;;;7.90;;
36355;SDS011;22384;54.302;18.596;2024-03-06T09:37:51;14.82;;;7.85;;
36355;SDS011;22384;54.302;18.596;2024-03-06T09:40:21;17.58;;;7.55;;
36355;SDS011;22384;54.302;18.596;2024-03-06T09:42:48;17.88;;;8.43;;
36355;SDS011;22384;54.302;18.596;2024-03-06T09:45:15;19.83;;;8.48;;
36355;SDS011;22384;54.302;18.596;2024-03-06T09:47:41;15.43;;;7.63;;
36355;SDS011;22384;54.302;18.596;2024-03-06T09:50:08;15.73;;;7.15;;
36355;SDS011;22384;54.302;18.596;2024-03-06T09:52:36;18.10;;;7.78;;
36355;SDS011;22384;54.302;18.596;2024-03-06T09:55:02;14.82;;;8.13;;
36355;SDS011;22384;54.302;18.596;2024-03-06T09:57:29;16.42;;;7.63;;
36355;SDS011;22384;54.302;18.596;2024-03-06T09:59:55;13.15;;;7.43;;
36355;SDS011;22384;54.302;18.596;2024-03-06T10:02:28;16.80;;;7.55;;
36355;SDS011;22384;54.302;18.596;2024-03-06T10:04:56;16.50;;;7.70;;
36355;SDS011;22384;54.302;18.596;2024-03-06T10:07:22;13.02;;;7.57;;
36355;SDS011;22384;54.302;18.596;2024-03-06T10:09:48;17.08;;;7.72;;
36355;SDS011;22384;54.302;18.596;2024-03-06T10:12:18;20.58;;;7.50;;
36355;SDS011;22384;54.302;18.596;2024-03-06T10:14:53;17.80;;;7.88;;
36355;SDS011;22384;54.302;18.596;2024-03-06T10:17:22;16.45;;;7.32;;
36355;SDS011;22384;54.302;18.596;2024-03-06T10:19:48;15.70;;;7.80;;
36355;SDS011;22384;54.302;18.596;2024-03-06T10:22:21;14.75;;;7.07;;
36355;SDS011;22384;54.302;18.596;2024-03-06T10:24:49;22.02;;;7.93;;
36355;SDS011;22384;54.302;18.596;2024-03-06T10:27:15;14.13;;;6.80;;
36355;SDS011;22384;54.302;18.596;2024-03-06T10:29:44;20.40;;;7.70;;
36355;SDS011;22384;54.302;18.596;2024-03-06T10:32:10;16.63;;;7.53;;
36355;SDS011;22384;54.302;18.596;2024-03-06T10:34:44;19.27;;;8.02;;
36355;SDS011;22384;54.302;18.596;2024-03-06T10:37:10;14.10;;;7.70;;
36355;SDS011;22384;54.302;18.596;2024-03-06T10:39:38;19.88;;;9.27;;
36355;SDS011;22384;54.302;18.596;2024-03-06T10:42:09;14.68;;;7.22;;
36355;SDS011;22384;54.302;18.596;2024-03-06T10:44:38;16.13;;;6.88;;
36355;SDS011;22384;54.302;18.596;2024-03-06T10:47:10;13.50;;;6.53;;
36355;SDS011;22384;54.302;18.596;2024-03-06T10:49:36;16.92;;;7.40;;
36355;SDS011;22384;54.302;18.596;2024-03-06T10:52:03;19.08;;;7.65;;
36355;SDS011;22384;54.302;18.596;2024-03-06T10:54:31;14.00;;;7.25;;
36355;SDS011;22384;54.302;18.596;2024-03-06T10:56:59;15.80;;;6.35;;
36355;SDS011;22384;54.302;18.596;2024-03-06T10:59:26;15.43;;;6.88;;
36355;SDS011;22384;54.302;18.596;2024-03-06T11:01:56;16.00;;;7.13;;
36355;SDS011;22384;54.302;18.596;2024-03-06T11:04:25;13.60;;;6.70;;
36355;SDS011;22384;54.302;18.596;2024-03-06T11:06:56;14.07;;;6.40;;
36355;SDS011;22384;54.302;18.596;2024-03-06T11:09:25;15.30;;;6.65;;
36355;SDS011;22384;54.302;18.596;2024-03-06T11:11:52;16.30;;;7.05;;
36355;SDS011;22384;54.302;18.596;2024-03-06T11:14:21;11.65;;;6.82;;
36355;SDS011;22384;54.302;18.596;2024-03-06T11:16:57;15.68;;;8.00;;
36355;SDS011;22384;54.302;18.596;2024-03-06T11:19:25;15.45;;;6.90;;
36355;SDS011;22384;54.302;18.596;2024-03-06T11:21:51;15.68;;;7.15;;
36355;SDS011;22384;54.302;18.596;2024-03-06T11:24:18;13.20;;;6.95;;
36355;SDS011;22384;54.302;18.596;2024-03-06T11:29:17;14.48;;;6.60;;
36355;SDS011;22384;54.302;18.596;2024-03-06T11:31:57;15.32;;;7.03;;
36355;SDS011;22384;54.302;18.596;2024-03-06T11:34:23;11.95;;;6.43;;
36355;SDS011;22384;54.302;18.596;2024-03-06T11:36:52;14.57;;;6.55;;
36355;SDS011;22384;54.302;18.596;2024-03-06T11:39:19;16.40;;;9.02;;
36355;SDS011;22384;54.302;18.596;2024-03-06T11:41:48;13.23;;;6.50;;
36355;SDS011;22384;54.302;18.596;2024-03-06T11:44:18;9.43;;;5.85;;
36355;SDS011;22384;54.302;18.596;2024-03-06T11:46:50;13.40;;;6.72;;
36355;SDS011;22384;54.302;18.596;2024-03-06T11:49:22;13.02;;;6.07;;
36355;SDS011;22384;54.302;18.596;2024-03-06T11:51:52;15.65;;;7.20;;
36355;SDS011;22384;54.302;18.596;2024-03-06T11:54:18;14.45;;;7.13;;
36355;SDS011;22384;54.302;18.596;2024-03-06T11:56:49;13.33;;;6.53;;
36355;SDS011;22384;54.302;18.596;2024-03-06T11:59:24;11.95;;;6.50;;
36355;SDS011;22384;54.302;18.596;2024-03-06T12:01:51;17.43;;;6.40;;
36355;SDS011;22384;54.302;18.596;2024-03-06T12:04:18;16.38;;;6.90;;
36355;SDS011;22384;54.302;18.596;2024-03-06T12:06:44;17.45;;;7.60;;
36355;SDS011;22384;54.302;18.596;2024-03-06T12:09:10;16.50;;;7.00;;
36355;SDS011;22384;54.302;18.596;2024-03-06T12:11:37;14.15;;;6.60;;
36355;SDS011;22384;54.302;18.596;2024-03-06T12:14:03;10.73;;;6.20;;
36355;SDS011;22384;54.302;18.596;2024-03-06T12:16:30;15.48;;;6.80;;
36355;SDS011;22384;54.302;18.596;2024-03-06T12:18:56;19.98;;;6.80;;
36355;SDS011;22384;54.302;18.596;2024-03-06T12:21:32;13.80;;;7.22;;
36355;SDS011;22384;54.302;18.596;2024-03-06T12:24:06;12.63;;;6.03;;
36355;SDS011;22384;54.302;18.596;2024-03-06T12:26:32;9.82;;;6.15;;
36355;SDS011;22384;54.302;18.596;2024-03-06T12:29:08;18.73;;;7.32;;
36355;SDS011;22384;54.302;18.596;2024-03-06T12:31:35;19.23;;;6.13;;
36355;SDS011;22384;54.302;18.596;2024-03-06T12:34:01;17.67;;;6.78;;
36355;SDS011;22384;54.302;18.596;2024-03-06T12:36:27;18.80;;;6.50;;
36355;SDS011;22384;54.302;18.596;2024-03-06T12:39:01;12.47;;;6.60;;
36355;SDS011;22384;54.302;18.596;2024-03-06T12:41:28;11.38;;;6.47;;
36355;SDS011;22384;54.302;18.596;2024-03-06T12:43:55;18.17;;;6.50;;
36355;SDS011;22384;54.302;18.596;2024-03-06T12:46:22;17.83;;;6.40;;
36355;SDS011;22384;54.302;18.596;2024-03-06T12:48:48;14.13;;;6.70;;
36355;SDS011;22384;54.302;18.596;2024-03-06T12:51:14;13.23;;;7.22;;
36355;SDS011;22384;54.302;18.596;2024-03-06T12:53:43;13.63;;;6.32;;
36355;SDS011;22384;54.302;18.596;2024-03-06T12:56:09;14.85;;;6.55;;
36355;SDS011;22384;54.302;18.596;2024-03-06T12:58:35;13.93;;;6.10;;
36355;SDS011;22384;54.302;18.596;2024-03-06T13:01:01;13.10;;;7.30;;
36355;SDS011;22384;54.302;18.596;2024-03-06T13:03:27;14.45;;;6.75;;
36355;SDS011;22384;54.302;18.596;2024-03-06T13:05:54;13.80;;;6.35;;
36355;SDS011;22384;54.302;18.596;2024-03-06T13:08:20;18.85;;;6.85;;
36355;SDS011;22384;54.302;18.596;2024-03-06T13:10:46;11.75;;;6.63;;
36355;SDS011;22384;54.302;18.596;2024-03-06T13:13:12;12.75;;;6.85;;
36355;SDS011;22384;54.302;18.596;2024-03-06T13:15:38;21.63;;;7.50;;
36355;SDS011;22384;54.302;18.596;2024-03-06T13:18:04;15.73;;;6.88;;
36355;SDS011;22384;54.302;18.596;2024-03-06T13:20:31;18.80;;;7.20;;
36355;SDS011;22384;54.302;18.596;2024-03-06T13:22:57;16.02;;;7.07;;
36355;SDS011;22384;54.302;18.596;2024-03-06T13:25:23;15.43;;;6.90;;
36355;SDS011;22384;54.302;18.596;2024-03-06T13:27:49;12.02;;;6.53;;
36355;SDS011;22384;54.302;18.596;2024-03-06T13:30:17;13.43;;;5.93;;
36355;SDS011;22384;54.302;18.596;2024-03-06T13:32:43;14.40;;;7.05;;
36355;SDS011;22384;54.302;18.596;2024-03-06T13:35:11;15.95;;;7.30;;
36355;SDS011;22384;54.302;18.596;2024-03-06T13:37:41;14.45;;;6.53;;
36355;SDS011;22384;54.302;18.596;2024-03-06T13:40:07;16.48;;;7.10;;
36355;SDS011;22384;54.302;18.596;2024-03-06T13:42:42;12.70;;;6.55;;
36355;SDS011;22384;54.302;18.596;2024-03-06T13:45:08;14.88;;;6.80;;
36355;SDS011;22384;54.302;18.596;2024-03-06T13:47:37;15.40;;;7.35;;
36355;SDS011;22384;54.302;18.596;2024-03-06T13:50:04;14.20;;;7.53;;
36355;SDS011;22384;54.302;18.596;2024-03-06T13:52:33;18.98;;;6.78;;
36355;SDS011;22384;54.302;18.596;2024-03-06T13:54:59;11.55;;;6.80;;
36355;SDS011;22384;54.302;18.596;2024-03-06T13:57:27;18.73;;;7.32;;
36355;SDS011;22384;54.302;18.596;2024-03-06T13:59:54;13.77;;;7.07;;
36355;SDS011;22384;54.302;18.596;2024-03-06T14:05:23;18.98;;;7.65;;
36355;SDS011;22384;54.302;18.596;2024-03-06T14:07:53;13.05;;;7.20;;
36355;SDS011;22384;54.302;18.596;2024-03-06T14:10:20;15.23;;;6.88;;
36355;SDS011;22384;54.302;18.596;2024-03-06T14:15:51;18.33;;;7.05;;
36355;SDS011;22384;54.302;18.596;2024-03-06T14:18:18;18.90;;;6.30;;
36355;SDS011;22384;54.302;18.596;2024-03-06T14:20:44;13.02;;;6.60;;
36355;SDS011;22384;54.302;18.596;2024-03-06T14:23:10;21.92;;;6.75;;
36355;SDS011;22384;54.302;18.596;2024-03-06T14:25:37;10.85;;;6.35;;
36355;SDS011;22384;54.302;18.596;2024-03-06T14:28:03;15.27;;;6.57;;
36355;SDS011;22384;54.302;18.596;2024-03-06T14:30:29;14.40;;;7.03;;
36355;SDS011;22384;54.302;18.596;2024-03-06T14:32:55;10.68;;;5.97;;
36355;SDS011;22384;54.302;18.596;2024-03-06T14:35:21;17.85;;;6.05;;
36355;SDS011;22384;54.302;18.596;2024-03-06T14:37:48;11.45;;;6.40;;
36355;SDS011;22384;54.302;18.596;2024-03-06T14:40:14;11.95;;;6.38;;
36355;SDS011;22384;54.302;18.596;2024-03-06T14:42:40;14.80;;;6.65;;
36355;SDS011;22384;54.302;18.596;2024-03-06T14:45:07;18.40;;;6.72;;
36355;SDS011;22384;54.302;18.596;2024-03-06T14:47:34;12.13;;;6.38;;
36355;SDS011;22384;54.302;18.596;2024-03-06T14:50:01;14.68;;;7.65;;
36355;SDS011;22384;54.302;18.596;2024-03-06T14:52:27;15.88;;;6.35;;
36355;SDS011;22384;54.302;18.596;2024-03-06T14:54:53;14.40;;;6.25;;
36355;SDS011;22384;54.302;18.596;2024-03-06T14:57:19;20.15;;;6.30;;
36355;SDS011;22384;54.302;18.596;2024-03-06T14:59:47;13.07;;;6.75;;
36355;SDS011;22384;54.302;18.596;2024-03-06T15:02:13;11.20;;;6.07;;
36355;SDS011;22384;54.302;18.596;2024-03-06T15:04:39;13.52;;;6.90;;
36355;SDS011;22384;54.302;18.596;2024-03-06T15:07:06;10.30;;;5.90;;
36355;SDS011;22384;54.302;18.596;2024-03-06T15:09:32;15.82;;;6.22;;
36355;SDS011;22384;54.302;18.596;2024-03-06T15:11:59;15.40;;;6.82;;
36355;SDS011;22384;54.302;18.596;2024-03-06T15:14:28;19.38;;;6.97;;
36355;SDS011;22384;54.302;18.596;2024-03-06T15:16:54;12.35;;;6.25;;
36355;SDS011;22384;54.302;18.596;2024-03-06T15:19:20;16.92;;;6.05;;
36355;SDS011;22384;54.302;18.596;2024-03-06T15:21:46;18.38;;;6.38;;
36355;SDS011;22384;54.302;18.596;2024-03-06T15:24:12;14.02;;;6.95;;
36355;SDS011;22384;54.302;18.596;2024-03-06T15:26:38;15.60;;;6.75;;
36355;SDS011;22384;54.302;18.596;2024-03-06T15:29:05;12.90;;;6.40;;
36355;SDS011;22384;54.302;18.596;2024-03-06T15:31:31;16.10;;;6.00;;
36355;SDS011;22384;54.302;18.596;2024-03-06T15:33:57;14.02;;;6.55;;
36355;SDS011;22384;54.302;18.596;2024-03-06T15:36:23;15.23;;;6.68;;
36355;SDS011;22384;54.302;18.596;2024-03-06T15:38:49;13.30;;;6.28;;
36355;SDS011;22384;54.302;18.596;2024-03-06T15:41:15;16.85;;;6.60;;
36355;SDS011;22384;54.302;18.596;2024-03-06T16:35:02;18.23;;;9.23;;
36355;SDS011;22384;54.302;18.596;2024-03-06T16:37:29;14.68;;;6.35;;
36355;SDS011;22384;54.302;18.596;2024-03-06T16:39:55;14.98;;;7.85;;
36355;SDS011;22384;54.302;18.596;2024-03-06T16:42:21;18.27;;;8.70;;
36355;SDS011;22384;54.302;18.596;2024-03-06T16:44:48;12.85;;;6.88;;
36355;SDS011;22384;54.302;18.596;2024-03-06T16:47:14;14.55;;;6.35;;
36355;SDS011;22384;54.302;18.596;2024-03-06T16:49:40;22.35;;;11.18;;